Time;durP1;ratioP1;P1;durP2;ratioP2;P2;SDS_P1;SDS_P2;PMS_P1;PMS_P2;Temp;Humidity;BMP_temperature;BMP_pressure;BME280_temperature;BME280_humidity;BME280_pressure;Samples;Min_cycle;Max_cycle;Signal;HPM_P1;HPM_P2
2022/05/08 00:00:30;;;;;;;16.50;10.52;;;;;;;9.71;100.00;92852.44;5012365;28;20092;-77
2022/05/08 00:02:57;;;;;;;17.85;11.00;;;;;;;9.72;100.00;92856.59;5012083;28;20042;-77
2022/05/08 00:05:24;;;;;;;20.15;11.25;;;;;;;9.73;100.00;92860.03;5016780;28;20477;-78
2022/05/08 00:07:49;;;;;;;17.65;11.15;;;;;;;9.68;100.00;92855.59;5016253;28;20400;-78
2022/05/08 00:10:15;;;;;;;20.73;11.60;;;;;;;9.72;100.00;92859.22;5018134;28;20034;-78
2022/05/08 00:12:41;;;;;;;18.63;12.50;;;;;;;9.68;100.00;92860.84;4997361;28;20088;-78
2022/05/08 00:15:08;;;;;;;23.25;13.48;;;;;;;9.65;100.00;92860.59;5015395;28;20026;-78
2022/05/08 00:17:34;;;;;;;21.23;13.85;;;;;;;9.62;100.00;92856.69;5016141;28;20564;-78
2022/05/08 00:20:06;;;;;;;23.17;13.95;;;;;;;9.63;100.00;92850.38;5016147;28;20052;-78
2022/05/08 00:22:31;;;;;;;22.48;14.43;;;;;;;9.59;100.00;92850.16;5016351;28;20041;-78
2022/05/08 00:24:57;;;;;;;20.95;13.40;;;;;;;9.65;100.00;92850.13;4997307;28;20936;-78
2022/05/08 00:27:23;;;;;;;21.75;12.90;;;;;;;9.65;100.00;92850.91;5016156;28;20030;-78
2022/05/08 00:29:49;;;;;;;21.75;14.05;;;;;;;9.62;100.00;92846.22;4999551;28;20408;-78
2022/05/08 00:32:15;;;;;;;20.75;13.13;;;;;;;9.66;100.00;92843.84;4998698;28;20022;-77
2022/05/08 00:34:40;;;;;;;18.83;12.95;;;;;;;9.68;100.00;92850.38;5017542;28;20536;-77
2022/05/08 00:37:06;;;;;;;25.45;13.02;;;;;;;9.69;100.00;92848.53;4981353;28;20041;-77
2022/05/08 00:39:32;;;;;;;22.58;13.60;;;;;;;9.68;100.00;92842.53;5012666;28;20072;-77
2022/05/08 00:42:01;;;;;;;22.15;13.90;;;;;;;9.75;100.00;92845.63;4995434;28;20472;-77
2022/05/08 00:44:27;;;;;;;24.38;13.70;;;;;;;9.76;100.00;92851.63;4994433;28;20034;-77
2022/05/08 00:46:53;;;;;;;24.90;15.00;;;;;;;9.78;100.00;92839.06;5012310;28;20037;-77
2022/05/08 00:49:18;;;;;;;23.38;14.40;;;;;;;9.77;100.00;92847.94;4995468;28;20488;-78
2022/05/08 00:51:48;;;;;;;20.75;13.27;;;;;;;9.78;100.00;92842.44;4994661;28;20023;-77
2022/05/08 00:54:15;;;;;;;20.88;13.27;;;;;;;9.82;100.00;92844.50;4993464;28;20070;-77
2022/05/08 00:56:42;;;;;;;19.75;13.43;;;;;;;9.80;100.00;92842.19;5012348;28;20479;-77
2022/05/08 00:59:08;;;;;;;20.70;14.15;;;;;;;9.80;100.00;92840.34;4995170;28;20029;-77
2022/05/08 01:01:33;;;;;;;27.35;14.73;;;;;;;9.83;100.00;92838.25;5012654;28;20403;-77
2022/05/08 01:03:59;;;;;;;23.20;14.35;;;;;;;9.87;100.00;92842.66;5012600;28;20042;-77
2022/05/08 01:06:26;;;;;;;20.70;13.07;;;;;;;9.89;100.00;92842.41;5003850;28;20030;-77
2022/05/08 01:08:51;;;;;;;19.50;12.70;;;;;;;9.90;100.00;92836.09;5011323;28;20105;-77
2022/05/08 01:11:17;;;;;;;20.88;13.23;;;;;;;9.91;100.00;92835.84;5012019;28;20464;-77
2022/05/08 01:13:44;;;;;;;21.23;13.05;;;;;;;9.90;100.00;92833.47;5011968;28;20104;-77
2022/05/08 01:16:16;;;;;;;21.40;13.13;;;;;;;9.92;100.00;92836.59;5010442;28;20488;-77
2022/05/08 01:18:43;;;;;;;19.48;13.25;;;;;;;9.90;100.00;92836.09;5011697;28;20052;-77
2022/05/08 01:21:10;;;;;;;22.35;14.15;;;;;;;9.86;100.00;92835.06;5011850;28;20120;-77
2022/05/08 01:23:39;;;;;;;21.67;12.90;;;;;;;9.84;100.00;92837.19;4994007;28;20045;-77
2022/05/08 01:26:05;;;;;;;18.88;12.77;;;;;;;9.83;100.00;92825.94;4992091;28;20034;-77
2022/05/08 01:28:31;;;;;;;18.88;12.25;;;;;;;9.83;100.00;92835.63;5011931;28;20034;-77
2022/05/08 01:30:57;;;;;;;22.08;12.48;;;;;;;9.78;100.00;92829.38;5010628;28;20040;-77
2022/05/08 01:33:23;;;;;;;21.85;12.50;;;;;;;9.76;100.00;92834.09;5010349;28;20108;-77
2022/05/08 01:35:51;;;;;;;21.63;13.38;;;;;;;9.69;100.00;92819.78;4994054;28;20097;-77
2022/05/08 01:38:22;;;;;;;22.67;12.50;;;;;;;9.78;100.00;92834.59;4993755;28;20080;-77
2022/05/08 01:40:50;;;;;;;21.67;12.27;;;;;;;9.81;100.00;92838.50;5011544;28;20034;-77
2022/05/08 01:43:16;;;;;;;21.52;12.68;;;;;;;9.82;100.00;92834.06;4993650;28;20053;-76
2022/05/08 01:45:42;;;;;;;665.90;23.42;;;;;;;9.82;100.00;92834.84;5007861;28;20057;-79
2022/05/08 01:48:25;;;;;;;173.60;14.10;;;;;;;9.79;100.00;92830.16;5011195;28;20030;-78
2022/05/08 01:50:52;;;;;;;472.10;18.65;;;;;;;9.75;100.00;92834.38;4995959;28;20125;-78
2022/05/08 01:53:28;;;;;;;461.98;19.63;;;;;;;9.76;100.00;92835.94;4994702;28;20034;-78
2022/05/08 01:55:56;;;;;;;821.72;26.13;;;;;;;9.73;100.00;92839.09;5014362;28;20053;-78
2022/05/08 01:58:23;;;;;;;59.30;12.90;;;;;;;9.79;100.00;92843.22;4994920;28;20038;-77
2022/05/08 02:00:50;;;;;;;695.03;21.25;;;;;;;9.78;100.00;92842.44;5011563;28;20053;-78
2022/05/08 02:03:15;;;;;;;395.67;23.58;;;;;;;9.70;100.00;92843.03;5009844;28;20025;-78
2022/05/08 02:05:43;;;;;;;560.78;18.98;;;;;;;9.69;100.00;92843.31;4978220;28;20472;-78
2022/05/08 02:08:10;;;;;;;740.90;29.40;;;;;;;9.57;100.00;92846.25;5011267;28;20065;-77
2022/05/08 02:10:36;;;;;;;697.75;26.13;;;;;;;9.54;100.00;92838.94;4993646;28;20045;-76
2022/05/08 02:13:02;;;;;;;62.28;15.00;;;;;;;9.49;100.00;92831.91;5011202;28;20049;-78
2022/05/08 02:15:31;;;;;;;22.77;13.93;;;;;;;9.58;100.00;92829.50;4990580;28;20042;-78
2022/05/08 02:18:08;;;;;;;23.15;13.85;;;;;;;9.58;100.00;92834.75;4974980;28;20042;-78
2022/05/08 02:20:36;;;;;;;23.20;14.68;;;;;;;9.59;100.00;92831.88;4997229;28;20045;-78
2022/05/08 02:23:03;;;;;;;24.92;14.35;;;;;;;9.58;100.00;92830.28;5015325;28;20054;-77
2022/05/08 02:25:30;;;;;;;22.80;14.23;;;;;;;9.59;100.00;92825.84;4993804;28;20035;-78
2022/05/08 02:27:56;;;;;;;22.65;13.40;;;;;;;9.58;100.00;92824.28;4995801;28;20034;-78
2022/05/08 02:30:23;;;;;;;20.52;13.00;;;;;;;9.55;100.00;92812.53;5005674;28;20331;-78
2022/05/08 02:32:51;;;;;;;23.95;13.27;;;;;;;9.58;100.00;92817.22;4999221;28;20387;-78
2022/05/08 02:35:20;;;;;;;23.48;13.98;;;;;;;9.62;100.00;92820.09;4991117;28;20041;-78
2022/05/08 02:37:48;;;;;;;24.70;13.98;;;;;;;9.66;100.00;92817.69;4996908;28;20034;-78
2022/05/08 02:40:14;;;;;;;23.25;14.02;;;;;;;9.68;100.00;92813.78;4997318;28;20030;-77
2022/05/08 02:42:41;;;;;;;26.83;14.35;;;;;;;9.71;100.00;92823.69;5014717;28;20088;-77
2022/05/08 02:45:11;;;;;;;344.65;19.58;;;;;;;9.73;100.00;92818.97;5012754;28;20048;-76
2022/05/08 02:47:41;;;;;;;612.33;24.38;;;;;;;9.69;100.00;92825.78;5014838;28;20038;-77
2022/05/08 02:50:09;;;;;;;1079.50;33.80;;;;;;;9.58;100.00;92826.91;5014764;28;20493;-77
2022/05/08 02:52:36;;;;;;;24.27;13.10;;;;;;;9.57;100.00;92822.75;5014356;28;20029;-77
2022/05/08 02:58:32;;;;;;;19.55;12.80;;;;;;;9.54;100.00;92823.25;5014598;28;20049;-76
2022/05/08 02:58:34;;;;;;;21.50;13.45;;;;;;;9.49;100.00;92829.31;5011566;28;20567;-77
2022/05/08 03:00:41;;;;;;;;;;;;;;;9.53;100.00;92824.31;5007156;28;20050;-76
2022/05/08 03:03:07;;;;;;;24.52;12.65;;;;;;;9.51;100.00;92819.38;4995719;28;19929;-77
2022/05/08 03:05:34;;;;;;;25.73;14.32;;;;;;;9.45;100.00;92814.44;5014438;28;20029;-76
2022/05/08 03:08:00;;;;;;;22.73;14.00;;;;;;;9.46;100.00;92823.84;4997066;28;20534;-77
2022/05/08 03:10:26;;;;;;;26.35;15.27;;;;;;;9.45;100.00;92823.06;5014241;28;20045;-77
2022/05/08 03:12:51;;;;;;;21.42;13.95;;;;;;;9.42;100.00;92820.97;4996199;28;20411;-77
2022/05/08 03:15:17;;;;;;;21.70;13.63;;;;;;;9.58;100.00;92824.28;4992286;28;20057;-77
2022/05/08 03:17:43;;;;;;;43.28;14.10;;;;;;;9.61;100.00;92822.97;4961491;28;20093;-77
2022/05/08 03:20:11;;;;;;;31.92;14.32;;;;;;;9.54;100.00;92823.25;4994830;28;20037;-77
2022/05/08 03:22:36;;;;;;;39.55;14.68;;;;;;;9.57;100.00;92830.59;4998839;28;20112;-76
2022/05/08 03:25:02;;;;;;;23.95;14.88;;;;;;;9.54;100.00;92824.03;4995068;28;20515;-77
2022/05/08 03:27:30;;;;;;;23.27;14.07;;;;;;;9.53;100.00;92827.72;5014058;28;20117;-77
2022/05/08 03:29:56;;;;;;;24.13;14.77;;;;;;;9.50;100.00;92822.22;4996694;28;20503;-77
2022/05/08 03:32:21;;;;;;;21.63;14.27;;;;;;;9.53;100.00;92825.09;5013183;28;20116;-76
2022/05/08 03:34:47;;;;;;;25.73;14.13;;;;;;;9.54;100.00;92828.50;4995043;28;20369;-77
2022/05/08 03:37:12;;;;;;;22.73;14.23;;;;;;;9.55;100.00;92819.63;4996386;28;20053;-77
2022/05/08 03:39:38;;;;;;;22.48;14.43;;;;;;;9.57;100.00;92825.34;5013796;28;20454;-77
2022/05/08 03:42:04;;;;;;;23.27;13.80;;;;;;;9.59;100.00;92837.09;5013548;28;20026;-77
2022/05/08 03:44:29;;;;;;;22.55;13.75;;;;;;;9.61;100.00;92828.97;5013403;28;20044;-77
2022/05/08 03:46:55;;;;;;;22.27;13.02;;;;;;;9.62;100.00;92825.31;4995152;28;20069;-77
2022/05/08 03:49:20;;;;;;;20.48;12.52;;;;;;;9.65;100.00;92832.59;4996070;28;20167;-77
2022/05/08 03:51:47;;;;;;;20.80;11.93;;;;;;;9.66;100.00;92826.34;5013749;28;20042;-77
2022/05/08 03:54:13;;;;;;;19.45;12.10;;;;;;;9.67;100.00;92827.88;4979064;28;20404;-77
2022/05/08 03:56:38;;;;;;;20.33;12.23;;;;;;;9.67;100.00;92830.50;4976892;28;20116;-77
2022/05/08 03:59:04;;;;;;;18.42;11.43;;;;;;;9.66;100.00;92818.50;4976633;28;20030;-78
2022/05/08 04:01:29;;;;;;;20.80;11.45;;;;;;;9.67;100.00;92827.88;4993775;28;20030;-77
2022/05/08 04:03:55;;;;;;;17.27;11.02;;;;;;;9.66;100.00;92826.34;4960276;28;20133;-77
2022/05/08 04:06:21;;;;;;;19.90;12.13;;;;;;;9.67;100.00;92829.72;5009269;28;20030;-77
2022/05/08 04:08:46;;;;;;;18.67;10.68;;;;;;;9.69;100.00;92833.63;5013020;28;20041;-77
2022/05/08 04:11:12;;;;;;;17.92;12.00;;;;;;;9.68;100.00;92834.69;4995887;28;20049;-77
2022/05/08 04:13:37;;;;;;;18.27;11.63;;;;;;;9.70;100.00;92831.78;5013158;28;20030;-77
2022/05/08 04:16:16;;;;;;;17.48;11.27;;;;;;;9.72;100.00;92835.69;5013047;28;20456;-77
2022/05/08 04:18:41;;;;;;;19.45;11.60;;;;;;;9.72;100.00;92838.31;5000426;28;20137;-77
2022/05/08 04:21:07;;;;;;;21.42;11.48;;;;;;;9.74;100.00;92838.81;4976244;28;20133;-78
2022/05/08 04:26:17;;;;;;;18.08;10.50;;;;;;;9.74;100.00;92833.59;4998270;28;20038;-78
2022/05/08 04:28:42;;;;;;;19.55;10.77;;;;;;;9.73;100.00;92842.50;4995556;28;20044;-78
2022/05/08 04:31:08;;;;;;;17.65;10.55;;;;;;;9.75;100.00;92842.22;4979222;28;20104;-78
2022/05/08 04:33:33;;;;;;;19.92;10.95;;;;;;;9.76;100.00;92838.56;4995426;28;20450;-78
2022/05/08 04:35:59;;;;;;;16.70;10.25;;;;;;;9.78;100.00;92847.69;5014599;28;20041;-78
2022/05/08 04:38:25;;;;;;;17.65;10.10;;;;;;;9.83;100.00;92854.72;4994911;28;20258;-78
2022/05/08 04:40:50;;;;;;;17.33;9.98;;;;;;;9.78;100.00;92845.06;5012864;28;20040;-78
2022/05/08 04:43:16;;;;;;;14.45;9.23;;;;;;;9.84;100.00;92858.91;4980839;28;20092;-78
2022/05/08 04:45:41;;;;;;;16.17;9.30;;;;;;;9.88;100.00;92851.28;5016057;28;20029;-77
2022/05/08 04:48:07;;;;;;;14.38;8.45;;;;;;;9.87;100.00;92847.88;5015747;28;20045;-78
2022/05/08 04:50:33;;;;;;;13.32;8.75;;;;;;;9.92;100.00;92850.47;5014855;28;20061;-78
2022/05/08 04:52:59;;;;;;;16.77;8.93;;;;;;;9.91;100.00;92841.06;5015220;28;20511;-78
2022/05/08 04:55:25;;;;;;;13.73;8.93;;;;;;;9.95;100.00;92851.75;4997176;28;20045;-77
2022/05/08 04:57:52;;;;;;;13.82;8.85;;;;;;;10.05;100.00;92853.53;4995967;28;20137;-77
2022/05/08 05:00:18;;;;;;;14.27;8.30;;;;;;;10.06;100.00;92855.84;4992602;28;20590;-77
2022/05/08 05:02:44;;;;;;;12.27;8.00;;;;;;;10.07;100.00;92849.56;4992917;28;20064;-77
2022/05/08 05:05:10;;;;;;;10.93;7.28;;;;;;;10.15;100.00;92848.19;4993999;28;20083;-77
2022/05/08 05:07:38;;;;;;;13.18;8.55;;;;;;;10.24;100.00;92861.47;5012391;28;20057;-77
2022/05/08 05:10:04;;;;;;;13.75;8.15;;;;;;;10.31;100.00;92868.00;5004673;28;20061;-77
2022/05/08 05:12:30;;;;;;;13.95;8.85;;;;;;;10.36;100.00;92859.31;4992345;28;20065;-77
2022/05/08 05:14:55;;;;;;;15.23;8.65;;;;;;;10.40;100.00;92860.31;5002218;28;20034;-79
2022/05/08 05:17:21;;;;;;;16.33;8.82;;;;;;;10.45;100.00;92860.28;4999047;28;20191;-78
2022/05/08 05:19:46;;;;;;;15.25;8.85;;;;;;;10.51;100.00;92864.41;4990789;28;20072;-78
2022/05/08 05:22:12;;;;;;;12.75;8.45;;;;;;;10.54;100.00;92855.25;4993070;28;20066;-76
2022/05/08 05:24:38;;;;;;;15.98;7.80;;;;;;;10.63;100.00;92864.81;4999245;28;20511;-79
2022/05/08 05:27:04;;;;;;;14.02;8.30;;;;;;;10.67;100.00;92865.03;4981431;28;20034;-80
2022/05/08 05:29:30;;;;;;;13.73;8.23;;;;;;;10.77;100.00;92874.66;5005949;28;20042;-80
2022/05/08 05:31:56;;;;;;;13.32;7.90;;;;;;;10.88;100.00;92870.88;5022532;28;20036;-78
2022/05/08 05:34:21;;;;;;;12.63;7.97;;;;;;;11.00;100.00;92873.09;4998411;28;20049;-77
2022/05/08 05:36:47;;;;;;;12.55;7.97;;;;;;;11.06;100.00;92868.59;4982587;28;20522;-77
2022/05/08 05:39:12;;;;;;;12.30;7.05;;;;;;;11.14;100.00;92875.81;5013130;28;20121;-78
2022/05/08 05:41:38;;;;;;;11.25;6.60;;;;;;;11.18;100.00;92859.25;4997925;28;20034;-78
2022/05/08 05:44:05;;;;;;;10.93;6.20;;;;;;;11.32;100.00;92880.31;5008208;28;20113;-78
2022/05/08 05:49:16;;;;;;;9.80;6.40;;;;;;;11.43;100.00;92879.13;4996260;28;20045;-78
2022/05/08 05:51:41;;;;;;;8.80;6.00;;;;;;;11.45;100.00;92876.25;5012812;28;20033;-77
2022/05/08 05:54:07;;;;;;;9.68;6.30;;;;;;;11.48;100.00;92877.53;5006729;28;20106;-78
2022/05/08 05:56:33;;;;;;;9.60;6.45;;;;;;;11.50;100.00;92875.41;5011022;28;20094;-78
2022/05/08 05:58:58;;;;;;;9.35;6.07;;;;;;;11.56;100.00;92882.16;4990803;28;20030;-78
2022/05/08 06:01:24;;;;;;;8.68;6.28;;;;;;;11.55;100.00;92880.56;5016216;28;20034;-79
2022/05/08 06:03:50;;;;;;;7.75;5.15;;;;;;;11.56;100.00;92890.00;4987995;28;20041;-79
2022/05/08 06:06:15;;;;;;;8.55;5.72;;;;;;;11.60;100.00;92888.38;5010176;28;20033;-79
2022/05/08 06:08:41;;;;;;;7.15;5.07;;;;;;;11.63;99.68;92890.44;5015643;28;20092;-78
2022/05/08 06:11:06;;;;;;;10.63;5.95;;;;;;;11.61;98.86;92892.56;4995781;28;20137;-80
2022/05/08 06:13:34;;;;;;;8.98;6.35;;;;;;;11.59;98.91;92890.22;5003400;28;20049;-78
2022/05/08 06:16:00;;;;;;;11.98;7.88;;;;;;;11.56;99.14;92890.00;4992444;28;20065;-79
2022/05/08 06:18:26;;;;;;;10.35;7.15;;;;;;;11.53;100.00;92893.19;4998830;28;20046;-79
2022/05/08 06:20:54;;;;;;;13.32;8.60;;;;;;;11.42;100.00;92885.44;4998329;28;20053;-81
2022/05/08 06:23:20;;;;;;;11.65;7.82;;;;;;;11.45;100.00;92890.13;5016675;28;20111;-79
2022/05/08 06:25:47;;;;;;;11.88;7.32;;;;;;;11.39;100.00;92891.28;4995624;28;20036;-79
2022/05/08 06:28:19;;;;;;;9.55;6.22;;;;;;;11.45;100.00;92895.38;4975861;28;20041;-77
2022/05/08 06:30:48;;;;;;;8.82;6.00;;;;;;;11.69;97.90;92899.03;4987879;28;20038;-81
2022/05/08 06:33:14;;;;;;;11.43;7.07;;;;;;;11.77;97.03;92908.88;4995512;28;20414;-82
2022/05/08 06:35:41;;;;;;;11.38;7.97;;;;;;;11.57;99.95;92907.28;4993816;28;20050;-81
2022/05/08 06:38:10;;;;;;;10.65;7.25;;;;;;;11.51;100.00;92901.34;5003604;28;20045;-80
2022/05/08 06:40:36;;;;;;;10.95;7.07;;;;;;;11.53;100.00;92906.28;5013272;28;20029;-82
2022/05/08 06:43:02;;;;;;;8.70;5.82;;;;;;;11.70;99.62;92909.22;4989133;28;20042;-81
2022/05/08 06:45:28;;;;;;;7.57;4.97;;;;;;;11.71;95.80;92908.19;5016086;28;20042;-81
2022/05/08 06:47:54;;;;;;;8.70;5.80;;;;;;;11.62;95.54;92908.03;4998628;28;20034;-81
2022/05/08 06:50:20;;;;;;;8.30;5.28;;;;;;;11.78;95.14;92908.59;4997596;28;20114;-82
2022/05/08 06:52:46;;;;;;;8.98;5.90;;;;;;;11.78;93.75;92908.59;5015725;28;20034;-82
2022/05/08 06:55:13;;;;;;;7.07;4.60;;;;;;;12.06;92.12;92903.53;5015597;28;20092;-80
2022/05/08 06:57:38;;;;;;;6.18;3.97;;;;;;;12.20;89.94;92912.22;5014865;28;20069;-80
2022/05/08 07:02:49;;;;;;;6.78;4.13;;;;;;;11.89;93.32;92919.78;4998038;28;20645;-79
2022/05/08 07:05:14;;;;;;;7.53;5.00;;;;;;;11.99;93.79;92926.72;5013959;28;20037;-80
2022/05/08 07:07:40;;;;;;;10.82;5.60;;;;;;;12.02;94.06;92928.75;5018910;28;20029;-77
2022/05/08 07:10:06;;;;;;;9.43;5.82;;;;;;;11.98;94.92;92925.94;5020894;28;20065;-80
2022/05/08 07:12:31;;;;;;;8.07;5.32;;;;;;;12.28;92.98;92927.34;5021442;28;20041;-79
2022/05/08 07:14:58;;;;;;;8.85;5.95;;;;;;;12.31;93.80;92927.84;5022523;28;20045;-78
2022/05/08 07:17:24;;;;;;;9.85;5.80;;;;;;;12.42;93.00;92929.25;5004297;28;20428;-79
2022/05/08 07:19:50;;;;;;;9.65;5.60;;;;;;;12.42;94.73;92929.25;5021761;28;20040;-80
2022/05/08 07:22:16;;;;;;;8.65;5.60;;;;;;;12.48;94.15;92931.50;5021620;28;20067;-79
2022/05/08 07:24:42;;;;;;;9.07;5.88;;;;;;;12.68;92.90;92929.63;5020925;28;20046;-79
2022/05/08 07:27:11;;;;;;;11.02;6.38;;;;;;;12.60;93.68;92925.81;5005020;28;20085;-79
2022/05/08 07:29:43;;;;;;;10.52;5.88;;;;;;;12.67;93.56;92923.56;5003476;28;20072;-79
2022/05/08 07:32:10;;;;;;;7.60;5.13;;;;;;;12.75;92.96;92934.50;5003854;28;20495;-78
2022/05/08 07:37:23;;;;;;;8.00;5.35;;;;;;;12.79;92.99;92927.59;4989844;28;20114;-79
2022/05/08 07:39:49;;;;;;;11.23;5.93;;;;;;;13.01;94.18;92938.25;5020889;28;20053;-79
2022/05/08 07:42:14;;;;;;;16.27;7.47;;;;;;;12.97;93.90;92934.66;5020711;28;20451;-79
2022/05/08 07:44:40;;;;;;;10.85;6.82;;;;;;;13.06;94.53;92929.50;5002858;28;20038;-79
2022/05/08 07:47:05;;;;;;;7.43;4.95;;;;;;;13.21;92.53;92933.72;4987464;28;20030;-79
2022/05/08 07:49:31;;;;;;;9.13;5.75;;;;;;;13.23;91.73;92928.94;5021479;28;20038;-79
2022/05/08 07:51:57;;;;;;;15.50;9.55;;;;;;;13.36;93.10;92943.97;5020442;28;20050;-80
2022/05/08 07:54:22;;;;;;;14.45;9.73;;;;;;;13.26;97.93;92938.88;5020452;28;20033;-79
2022/05/08 07:56:48;;;;;;;13.43;9.00;;;;;;;13.34;97.32;92935.59;5003261;28;20056;-79
2022/05/08 07:59:15;;;;;;;18.45;9.27;;;;;;;13.59;94.68;92941.44;5021327;28;20046;-79
2022/05/08 08:01:40;;;;;;;13.55;7.78;;;;;;;13.69;94.33;92939.41;5019966;28;20094;-80
2022/05/08 08:04:08;;;;;;;12.70;8.05;;;;;;;14.01;94.65;92944.81;4987581;28;20053;-78
2022/05/08 08:06:34;;;;;;;8.38;5.72;;;;;;;14.35;94.05;92941.69;5020404;28;20106;-79
2022/05/08 08:09:00;;;;;;;6.82;4.38;;;;;;;14.34;84.62;92943.56;5019832;28;20080;-79
2022/05/08 08:11:27;;;;;;;9.90;7.40;;;;;;;14.29;89.93;92948.16;5019946;28;20049;-78
2022/05/08 08:13:54;;;;;;;12.48;7.28;;;;;;;14.30;90.10;92952.34;5002076;28;20034;-79
2022/05/08 08:16:19;;;;;;;13.23;9.00;;;;;;;14.05;91.77;92945.75;5019457;28;20156;-80
2022/05/08 08:18:45;;;;;;;14.90;8.77;;;;;;;13.83;92.77;92955.16;5020787;28;20129;-78
2022/05/08 08:21:14;;;;;;;13.68;9.50;;;;;;;13.57;95.30;92956.75;5020647;28;20072;-77
2022/05/08 08:23:41;;;;;;;12.45;8.88;;;;;;;13.26;96.22;92959.91;5001499;28;20113;-80
2022/05/08 08:26:08;;;;;;;13.40;9.70;;;;;;;13.24;96.95;92957.59;5019890;28;20036;-81
2022/05/08 08:28:34;;;;;;;13.77;8.98;;;;;;;13.26;96.19;92959.91;5002202;28;20049;-80
2022/05/08 08:31:00;;;;;;;11.88;7.38;;;;;;;13.43;95.46;92962.78;5001969;28;20050;-79
2022/05/08 08:33:26;;;;;;;9.60;6.60;;;;;;;13.57;93.40;92970.66;5019483;28;20120;-78
2022/05/08 08:35:52;;;;;;;8.52;6.35;;;;;;;13.66;90.86;92963.66;5019296;28;20098;-79
2022/05/08 08:38:18;;;;;;;8.40;5.30;;;;;;;14.06;86.97;92963.13;5020222;28;20037;-79
2022/05/08 08:40:48;;;;;;;9.27;6.40;;;;;;;14.27;87.19;92960.84;5020164;28;20049;-80
2022/05/08 08:43:19;;;;;;;9.63;6.25;;;;;;;14.20;87.21;92963.88;5001643;28;20479;-78
2022/05/08 08:48:31;;;;;;;9.70;6.05;;;;;;;14.50;85.67;92964.25;5019486;28;20060;-80
2022/05/08 08:50:58;;;;;;;8.40;5.80;;;;;;;14.65;86.83;92971.84;5018176;28;20048;-80
2022/05/08 08:53:25;;;;;;;9.23;6.13;;;;;;;14.73;87.24;92963.25;5018756;28;20034;-81
2022/05/08 08:55:51;;;;;;;9.55;6.68;;;;;;;14.62;88.40;92975.09;5017325;28;20038;-80
2022/05/08 08:58:17;;;;;;;9.43;6.90;;;;;;;14.51;88.83;92976.38;5018811;28;20018;-78
2022/05/08 09:00:44;;;;;;;8.52;5.63;;;;;;;14.47;87.90;92970.13;5019822;28;20492;-78
2022/05/08 09:03:09;;;;;;;10.85;5.78;;;;;;;14.38;85.74;92975.34;5018775;28;20034;-80
2022/05/08 09:05:35;;;;;;;8.20;5.97;;;;;;;14.31;87.36;92973.09;5017740;28;20610;-80
2022/05/08 09:08:01;;;;;;;7.25;4.32;;;;;;;14.37;86.01;92979.06;5001816;28;20029;-80
2022/05/08 09:10:35;;;;;;;5.43;3.50;;;;;;;14.47;82.31;92970.13;5018568;28;20033;-80
2022/05/08 09:13:07;;;;;;;7.38;5.32;;;;;;;14.84;84.94;92976.16;5019634;28;20041;-79
2022/05/08 09:15:35;;;;;;;5.70;3.47;;;;;;;15.14;81.05;92977.28;5018688;28;20033;-80
2022/05/08 09:18:08;;;;;;;4.90;3.25;;;;;;;14.98;79.16;92975.03;5019491;28;20034;-80
2022/05/08 09:20:44;;;;;;;8.35;3.13;;;;;;;14.93;78.12;92977.03;4999050;28;20053;-79
2022/05/08 09:23:21;;;;;;;7.10;4.55;;;;;;;15.11;81.61;92978.69;5009715;28;20052;-79
2022/05/08 09:25:54;;;;;;;6.97;4.55;;;;;;;15.07;82.05;92977.72;5018531;28;20105;-80
2022/05/08 09:28:37;;;;;;;9.88;4.20;;;;;;;15.10;80.82;92981.63;5017921;28;20036;-80
2022/05/08 09:31:10;;;;;;;5.10;3.08;;;;;;;15.24;78.41;92979.66;5001185;28;20045;-81
2022/05/08 09:33:44;;;;;;;4.10;2.60;;;;;;;15.54;78.25;92970.19;5001537;28;20041;-80
2022/05/08 09:36:19;;;;;;;6.65;3.40;;;;;;;15.92;77.55;92982.94;5017950;28;20042;-80
2022/05/08 09:38:58;;;;;;;5.90;3.58;;;;;;;16.07;76.38;92978.28;4999973;28;20158;-80
2022/05/08 09:41:29;;;;;;;4.70;2.90;;;;;;;15.94;75.30;92975.50;5000999;28;20068;-80
2022/05/08 09:44:09;;;;;;;4.63;3.22;;;;;;;15.86;75.24;92970.94;5019791;28;20648;-80
2022/05/08 09:46:36;;;;;;;4.47;2.60;;;;;;;16.18;74.45;92974.28;5017848;28;20037;-81
2022/05/08 09:49:02;;;;;;;3.10;1.80;;;;;;;16.45;67.46;92981.91;5000816;28;20038;-80
2022/05/08 09:51:32;;;;;;;5.53;2.38;;;;;;;16.09;70.18;92973.50;5001109;28;20068;-80
2022/05/08 09:53:58;;;;;;;6.47;3.60;;;;;;;15.75;77.28;92980.22;5001764;28;20042;-79
2022/05/08 09:56:25;;;;;;;6.22;4.30;;;;;;;15.74;78.66;92973.41;5001479;28;20454;-79
2022/05/08 09:58:50;;;;;;;5.75;3.33;;;;;;;15.56;78.47;92970.69;5000628;28;20107;-80
2022/05/08 10:01:16;;;;;;;5.85;2.88;;;;;;;15.35;79.21;92974.91;4997444;28;20038;-80
2022/05/08 10:03:43;;;;;;;7.07;3.55;;;;;;;15.39;77.00;92981.91;4949825;28;20038;-79
2022/05/08 10:06:09;;;;;;;6.40;3.55;;;;;;;15.71;79.68;92990.59;4998645;28;20069;-79
2022/05/08 10:08:39;;;;;;;7.72;4.63;;;;;;;15.70;82.17;92983.00;4981307;28;20030;-79
2022/05/08 10:14:01;;;;;;;6.88;3.33;;;;;;;15.45;79.07;92974.66;4997476;28;20038;-80
2022/05/08 10:16:49;;;;;;;5.50;3.28;;;;;;;15.44;81.43;92977.59;4999202;28;20042;-80
2022/05/08 10:19:18;;;;;;;8.65;3.70;;;;;;;15.30;80.73;92981.09;4999020;28;20042;-79
2022/05/08 10:21:56;;;;;;;5.53;2.70;;;;;;;15.17;78.82;92974.81;4997108;28;20042;-79
2022/05/08 10:24:39;;;;;;;3.95;2.22;;;;;;;15.18;78.61;92979.03;5002294;28;20042;-80
2022/05/08 10:27:34;;;;;;;4.60;2.60;;;;;;;14.73;79.20;92983.56;5018868;28;20045;-79
2022/05/08 10:30:01;;;;;;;4.63;2.42;;;;;;;14.80;78.20;92980.50;4993286;28;20050;-79
2022/05/08 10:32:28;;;;;;;8.57;2.58;;;;;;;14.91;78.05;92973.91;5018801;28;20099;-78
2022/05/08 10:35:03;;;;;;;5.85;2.35;;;;;;;14.94;77.84;92976.72;5018579;28;20081;-79
2022/05/08 10:37:29;;;;;;;4.75;2.30;;;;;;;15.05;76.87;92969.34;5018677;28;20026;-80
2022/05/08 10:39:55;;;;;;;5.45;2.40;;;;;;;15.06;76.08;92968.25;4984712;28;20088;-79
2022/05/08 10:42:24;;;;;;;4.03;2.58;;;;;;;15.19;76.17;92970.03;5021110;28;20065;-78
2022/05/08 10:44:50;;;;;;;5.18;2.50;;;;;;;15.17;75.52;92972.19;5004631;28;20032;-78
2022/05/08 10:47:33;;;;;;;5.45;2.33;;;;;;;15.18;75.88;92978.25;5021555;28;20485;-80
2022/05/08 10:50:13;;;;;;;4.43;2.33;;;;;;;15.11;75.91;92978.69;5004197;28;20033;-80
2022/05/08 10:52:46;;;;;;;4.43;2.00;;;;;;;15.00;74.57;92974.75;5004071;28;20026;-80
2022/05/08 10:55:16;;;;;;;4.28;2.20;;;;;;;14.97;76.59;92983.22;5004713;28;20081;-80
2022/05/08 10:57:47;;;;;;;5.45;2.30;;;;;;;14.86;77.31;92972.19;5004478;28;20037;-78
2022/05/08 11:00:16;;;;;;;3.90;2.15;;;;;;;14.99;75.46;92981.06;5021985;28;20051;-78
2022/05/08 11:02:55;;;;;;;4.03;2.20;;;;;;;14.99;77.06;92994.25;5020623;28;20026;-79
2022/05/08 11:05:32;;;;;;;4.03;2.30;;;;;;;14.91;76.72;92979.19;5022052;28;20046;-78
2022/05/08 11:07:58;;;;;;;4.35;2.38;;;;;;;14.80;77.91;92983.13;5003310;28;20038;-79
2022/05/08 11:10:27;;;;;;;4.35;2.45;;;;;;;14.75;75.79;92991.94;4987844;28;20029;-78
2022/05/08 11:12:59;;;;;;;4.32;2.80;;;;;;;14.83;80.30;92987.81;5003639;28;20076;-79
2022/05/08 11:15:25;;;;;;;4.20;2.75;;;;;;;14.89;79.77;92990.00;5021354;28;20037;-78
2022/05/08 11:18:18;;;;;;;4.47;2.55;;;;;;;14.95;80.66;92991.47;4986916;28;20116;-78
2022/05/08 11:20:49;;;;;;;4.22;2.75;;;;;;;14.91;83.66;92984.44;5001978;28;20077;-78
2022/05/08 11:23:26;;;;;;;6.72;2.97;;;;;;;14.89;80.59;92987.38;4997107;28;20049;-79
2022/05/08 11:25:57;;;;;;;4.60;2.50;;;;;;;15.13;78.49;92983.63;4999150;28;20039;-78
2022/05/08 11:28:26;;;;;;;3.67;2.20;;;;;;;15.07;76.74;92985.63;5001112;28;20520;-79
2022/05/08 11:30:52;;;;;;;3.28;2.05;;;;;;;15.09;77.18;92988.75;5001443;28;20113;-80
2022/05/08 11:36:23;;;;;;;3.40;1.98;;;;;;;14.98;75.43;92990.84;5000300;28;20065;-80
2022/05/08 11:38:56;;;;;;;5.03;2.90;;;;;;;15.01;77.09;92989.47;5001380;28;20057;-79
2022/05/08 11:41:27;;;;;;;5.05;2.80;;;;;;;14.80;76.54;92997.09;5001895;28;20047;-80
2022/05/08 11:43:57;;;;;;;3.92;2.38;;;;;;;14.86;75.84;93001.16;5001611;28;20042;-79
2022/05/08 11:46:36;;;;;;;3.90;2.20;;;;;;;14.62;74.72;92988.28;5000092;28;20030;-79